UAE708 FMMI-FSIA
Flight info
| Callsign | UAE708 |
|---|---|
| Flight time | 2h 9m |
| Altitude | 37000 |
| Route | SEMEM1E GATLA UL441 MIROV/N0477F380 UL441 NORSI/N0478F390 DCT IMPOX IMPOX1R |
| Aircraft | B77W/H-SDE1E2E3FGHIJ2J3J4J5M1RWXY/LB1D1 |
Departure
| Time | 2026-04-24 07:04 |
|---|---|
| Airport | Ivato International Airport (FMMI) |
Arrival
| Time | 2026-04-24 09:13 |
|---|---|
| Airport | Seychelles International Airport (FSIA) |
| Time | Latitude | Longitude | Altitude | Speed | Heading |
|---|---|---|---|---|---|
| 2026-04-24 06:25 | -18.79974 | 47.47832 | 4174 ft | 0 kts | 189° |
| 2026-04-24 06:52 | -18.79965 | 47.47834 | 4174 ft | 2 kts | 189° |
| 2026-04-24 06:52 | -18.79950 | 47.47836 | 4174 ft | 2 kts | 189° |
| 2026-04-24 06:52 | -18.79935 | 47.47839 | 4174 ft | 2 kts | 192° |
| 2026-04-24 06:52 | -18.79921 | 47.47844 | 4174 ft | 2 kts | 208° |
| 2026-04-24 06:53 | -18.79908 | 47.47852 | 4173 ft | 2 kts | 221° |
| 2026-04-24 06:53 | -18.79897 | 47.47864 | 4173 ft | 2 kts | 233° |
| 2026-04-24 06:53 | -18.79889 | 47.47877 | 4173 ft | 2 kts | 245° |
| 2026-04-24 06:53 | -18.79884 | 47.47892 | 4173 ft | 2 kts | 258° |
| 2026-04-24 06:54 | -18.79882 | 47.47908 | 4174 ft | 2 kts | 270° |
| 2026-04-24 06:54 | -18.79882 | 47.47919 | 4174 ft | 0 kts | 279° |
| 2026-04-24 06:54 | -18.79883 | 47.47922 | 4174 ft | 0 kts | 280° |
| 2026-04-24 06:56 | -18.79882 | 47.47917 | 4174 ft | 2 kts | 280° |
| 2026-04-24 06:57 | -18.79877 | 47.47887 | 4173 ft | 5 kts | 279° |
| 2026-04-24 06:57 | -18.79868 | 47.47839 | 4173 ft | 6 kts | 288° |
| 2026-04-24 06:57 | -18.79854 | 47.47801 | 4172 ft | 5 kts | 290° |
| 2026-04-24 06:57 | -18.79841 | 47.47763 | 4173 ft | 5 kts | 289° |
| 2026-04-24 06:58 | -18.79832 | 47.47722 | 4173 ft | 5 kts | 281° |
| 2026-04-24 06:58 | -18.79825 | 47.47683 | 4174 ft | 4 kts | 280° |
| 2026-04-24 06:58 | -18.79819 | 47.47655 | 4175 ft | 3 kts | 284° |
| 2026-04-24 06:58 | -18.79814 | 47.47639 | 4176 ft | 2 kts | 290° |
| 2026-04-24 06:59 | -18.79802 | 47.47617 | 4177 ft | 5 kts | 308° |
| 2026-04-24 06:59 | -18.79758 | 47.47599 | 4177 ft | 9 kts | 3° |
| 2026-04-24 06:59 | -18.79680 | 47.47602 | 4177 ft | 10 kts | 346° |
| 2026-04-24 06:59 | -18.79645 | 47.47549 | 4178 ft | 7 kts | 282° |
| 2026-04-24 07:00 | -18.79636 | 47.47496 | 4180 ft | 7 kts | 279° |
| 2026-04-24 07:00 | -18.79626 | 47.47436 | 4182 ft | 9 kts | 280° |
| 2026-04-24 07:00 | -18.79613 | 47.47352 | 4185 ft | 13 kts | 280° |
| 2026-04-24 07:00 | -18.79596 | 47.47237 | 4191 ft | 17 kts | 278° |
| 2026-04-24 07:01 | -18.79577 | 47.47095 | 4197 ft | 21 kts | 278° |
| 2026-04-24 07:01 | -18.79553 | 47.46932 | 4205 ft | 24 kts | 278° |
| 2026-04-24 07:01 | -18.79525 | 47.46747 | 4213 ft | 25 kts | 279° |
| 2026-04-24 07:01 | -18.79502 | 47.46584 | 4218 ft | 16 kts | 280° |
| 2026-04-24 07:02 | -18.79483 | 47.46528 | 4220 ft | 5 kts | 297° |
| 2026-04-24 07:02 | -18.79470 | 47.46507 | 4221 ft | 2 kts | 307° |
| 2026-04-24 07:02 | -18.79458 | 47.46492 | 4221 ft | 3 kts | 306° |
| 2026-04-24 07:02 | -18.79457 | 47.46464 | 4222 ft | 2 kts | 209° |
| 2026-04-24 07:03 | -18.79480 | 47.46488 | 4221 ft | 8 kts | 121° |
| 2026-04-24 07:03 | -18.79496 | 47.46542 | 4219 ft | 7 kts | 101° |
| 2026-04-24 07:03 | -18.79511 | 47.46635 | 4217 ft | 26 kts | 99° |
| 2026-04-24 07:03 | -18.79577 | 47.47085 | 4198 ft | 95 kts | 100° |
| 2026-04-24 07:04 | -18.79710 | 47.47984 | 4171 ft | 152 kts | 97° |
| 2026-04-24 07:04 | -18.79905 | 47.49225 | 4353 ft | 182 kts | 102° |
| 2026-04-24 07:04 | -18.80139 | 47.50586 | 4909 ft | 193 kts | 99° |
| 2026-04-24 07:04 | -18.80315 | 47.51960 | 5684 ft | 193 kts | 98° |
| 2026-04-24 07:05 | -18.80519 | 47.53428 | 6013 ft | 210 kts | 100° |
| 2026-04-24 07:05 | -18.80752 | 47.55014 | 6294 ft | 229 kts | 97° |
| 2026-04-24 07:05 | -18.80611 | 47.56780 | 6576 ft | 253 kts | 75° |
| 2026-04-24 07:05 | -18.79722 | 47.58431 | 7004 ft | 271 kts | 49° |
| 2026-04-24 07:06 | -18.78134 | 47.59576 | 7633 ft | 282 kts | 27° |
| 2026-04-24 07:06 | -18.76345 | 47.60341 | 8509 ft | 279 kts | 25° |
| 2026-04-24 07:06 | -18.74537 | 47.61079 | 9262 ft | 280 kts | 24° |
| 2026-04-24 07:06 | -18.72723 | 47.61818 | 9920 ft | 284 kts | 25° |
| 2026-04-24 07:07 | -18.70863 | 47.62576 | 10543 ft | 291 kts | 24° |
| 2026-04-24 07:07 | -18.68913 | 47.63373 | 10876 ft | 309 kts | 24° |
| 2026-04-24 07:07 | -18.64674 | 47.65103 | 11610 ft | 343 kts | 24° |
| 2026-04-24 07:08 | -18.62392 | 47.66032 | 12052 ft | 359 kts | 24° |
| 2026-04-24 07:08 | -18.59990 | 47.67010 | 12512 ft | 374 kts | 24° |
| 2026-04-24 07:08 | -18.57532 | 47.68008 | 13033 ft | 387 kts | 23° |
| 2026-04-24 07:08 | -18.54984 | 47.69042 | 13710 ft | 395 kts | 23° |
| 2026-04-24 07:09 | -18.52397 | 47.70090 | 14454 ft | 403 kts | 23° |
| 2026-04-24 07:09 | -18.49756 | 47.71160 | 15209 ft | 410 kts | 24° |
| 2026-04-24 07:09 | -18.47068 | 47.72249 | 15984 ft | 417 kts | 24° |
| 2026-04-24 07:09 | -18.44418 | 47.73531 | 16718 ft | 422 kts | 31° |
| 2026-04-24 07:10 | -18.41842 | 47.75060 | 17458 ft | 428 kts | 33° |
| 2026-04-24 07:10 | -18.39276 | 47.76608 | 18216 ft | 433 kts | 33° |
| 2026-04-24 07:10 | -18.36644 | 47.78194 | 18961 ft | 439 kts | 32° |
| 2026-04-24 07:10 | -18.33975 | 47.79801 | 19686 ft | 445 kts | 32° |
| 2026-04-24 07:11 | -18.31270 | 47.81428 | 20389 ft | 451 kts | 32° |
| 2026-04-24 07:11 | -18.28520 | 47.83080 | 21081 ft | 457 kts | 32° |
| 2026-04-24 07:11 | -18.25748 | 47.84745 | 21773 ft | 463 kts | 32° |
| 2026-04-24 07:11 | -18.22944 | 47.86427 | 22427 ft | 469 kts | 32° |
| 2026-04-24 07:12 | -18.20097 | 47.88136 | 23085 ft | 475 kts | 32° |
| 2026-04-24 07:12 | -18.17213 | 47.89865 | 23787 ft | 479 kts | 32° |
| 2026-04-24 07:12 | -18.14306 | 47.91607 | 24482 ft | 483 kts | 32° |
| 2026-04-24 07:12 | -18.11359 | 47.93372 | 25126 ft | 489 kts | 32° |
| 2026-04-24 07:13 | -18.08382 | 47.95155 | 25793 ft | 494 kts | 31° |
| 2026-04-24 07:13 | -18.05385 | 47.96949 | 26467 ft | 498 kts | 31° |
| 2026-04-24 07:13 | -18.02363 | 47.98757 | 27091 ft | 503 kts | 31° |
| 2026-04-24 07:13 | -17.99330 | 48.00570 | 27737 ft | 508 kts | 31° |
| 2026-04-24 07:14 | -17.96243 | 48.02416 | 28360 ft | 512 kts | 31° |
| 2026-04-24 07:14 | -17.93130 | 48.04276 | 28999 ft | 516 kts | 31° |
| 2026-04-24 07:14 | -17.89998 | 48.06146 | 29663 ft | 520 kts | 31° |
| 2026-04-24 07:14 | -17.86856 | 48.08022 | 30522 ft | 518 kts | 31° |
| 2026-04-24 07:15 | -17.83720 | 48.09893 | 31457 ft | 514 kts | 31° |
| 2026-04-24 07:15 | -17.80638 | 48.11731 | 32276 ft | 512 kts | 31° |
| 2026-04-24 07:15 | -17.77531 | 48.13584 | 32911 ft | 513 kts | 31° |
| 2026-04-24 07:15 | -17.74408 | 48.15446 | 33515 ft | 515 kts | 31° |
| 2026-04-24 07:16 | -17.71305 | 48.17295 | 34341 ft | 511 kts | 30° |
| 2026-04-24 07:16 | -17.68266 | 48.19105 | 35256 ft | 506 kts | 30° |
| 2026-04-24 07:16 | -17.65220 | 48.20918 | 36047 ft | 502 kts | 30° |
| 2026-04-24 07:16 | -17.62172 | 48.22732 | 36568 ft | 503 kts | 30° |
| 2026-04-24 07:17 | -17.59126 | 48.24544 | 37001 ft | 505 kts | 30° |
| 2026-04-24 07:17 | -17.56048 | 48.26374 | 37106 ft | 509 kts | 30° |
| 2026-04-24 07:17 | -17.49890 | 48.30034 | 37115 ft | 505 kts | 30° |
| 2026-04-24 07:18 | -17.43807 | 48.33647 | 37111 ft | 508 kts | 30° |
| 2026-04-24 07:18 | -17.37666 | 48.37291 | 37107 ft | 507 kts | 30° |
| 2026-04-24 07:19 | -17.31509 | 48.40942 | 37110 ft | 507 kts | 30° |
| 2026-04-24 07:19 | -17.25378 | 48.44574 | 37111 ft | 507 kts | 30° |
| 2026-04-24 07:20 | -17.19232 | 48.48213 | 37106 ft | 508 kts | 30° |
| 2026-04-24 07:20 | -17.13093 | 48.51844 | 37105 ft | 506 kts | 30° |
| 2026-04-24 07:21 | -17.06916 | 48.55496 | 37102 ft | 507 kts | 30° |
| 2026-04-24 07:21 | -17.00808 | 48.59104 | 37101 ft | 507 kts | 30° |
| 2026-04-24 07:22 | -16.94647 | 48.62740 | 37101 ft | 507 kts | 30° |
| 2026-04-24 07:22 | -16.88483 | 48.66375 | 37090 ft | 507 kts | 30° |
| 2026-04-24 07:23 | -16.82334 | 48.70000 | 37096 ft | 509 kts | 30° |
| 2026-04-24 07:23 | -16.76165 | 48.73632 | 37098 ft | 509 kts | 30° |
| 2026-04-24 07:24 | -16.69994 | 48.77264 | 37105 ft | 509 kts | 30° |
| 2026-04-24 07:24 | -16.63846 | 48.80879 | 37097 ft | 509 kts | 30° |
| 2026-04-24 07:25 | -16.57663 | 48.84512 | 37091 ft | 509 kts | 30° |
| 2026-04-24 07:25 | -16.51502 | 48.88129 | 37087 ft | 508 kts | 30° |
| 2026-04-24 07:26 | -16.45321 | 48.91755 | 37083 ft | 510 kts | 30° |
| 2026-04-24 07:26 | -16.39156 | 48.95369 | 37077 ft | 509 kts | 30° |
| 2026-04-24 07:27 | -16.32959 | 48.98999 | 37073 ft | 511 kts | 30° |
| 2026-04-24 07:27 | -16.26729 | 49.02645 | 37075 ft | 511 kts | 30° |
| 2026-04-24 07:28 | -16.20527 | 49.06273 | 37072 ft | 510 kts | 30° |
| 2026-04-24 07:28 | -16.14356 | 49.09880 | 37070 ft | 511 kts | 30° |
| 2026-04-24 07:29 | -16.08137 | 49.13512 | 37066 ft | 512 kts | 30° |
| 2026-04-24 07:29 | -16.01932 | 49.17133 | 37062 ft | 510 kts | 30° |
| 2026-04-24 07:30 | -15.95757 | 49.20785 | 37051 ft | 511 kts | 31° |
| 2026-04-24 07:30 | -15.89606 | 49.24431 | 37043 ft | 511 kts | 31° |
| 2026-04-24 07:31 | -15.83349 | 49.28135 | 37033 ft | 513 kts | 31° |
| 2026-04-24 07:31 | -15.77145 | 49.31805 | 37030 ft | 513 kts | 31° |
| 2026-04-24 07:32 | -15.70956 | 49.35463 | 37024 ft | 513 kts | 31° |
| 2026-04-24 07:32 | -15.64765 | 49.39118 | 37026 ft | 512 kts | 31° |
| 2026-04-24 07:33 | -15.58555 | 49.42782 | 37016 ft | 512 kts | 31° |
| 2026-04-24 07:33 | -15.52374 | 49.46426 | 37006 ft | 513 kts | 31° |
| 2026-04-24 07:34 | -15.46146 | 49.50096 | 36997 ft | 512 kts | 31° |
| 2026-04-24 07:34 | -15.39952 | 49.53743 | 36996 ft | 512 kts | 31° |
| 2026-04-24 07:35 | -15.33768 | 49.57381 | 37004 ft | 513 kts | 31° |
| 2026-04-24 07:35 | -15.27534 | 49.61046 | 37010 ft | 512 kts | 31° |
| 2026-04-24 07:36 | -15.21330 | 49.64691 | 37012 ft | 512 kts | 31° |
| 2026-04-24 07:36 | -15.15149 | 49.68321 | 37012 ft | 514 kts | 31° |
| 2026-04-24 07:37 | -15.08948 | 49.71959 | 37005 ft | 511 kts | 31° |
| 2026-04-24 07:37 | -15.02721 | 49.75610 | 37003 ft | 513 kts | 31° |
| 2026-04-24 07:38 | -14.96511 | 49.79187 | 37012 ft | 512 kts | 30° |
| 2026-04-24 07:38 | -14.90270 | 49.82693 | 37017 ft | 512 kts | 30° |
| 2026-04-24 07:39 | -14.83984 | 49.86226 | 37007 ft | 510 kts | 30° |
| 2026-04-24 07:39 | -14.77735 | 49.89740 | 37006 ft | 512 kts | 30° |
| 2026-04-24 07:40 | -14.71499 | 49.93245 | 36991 ft | 511 kts | 30° |
| 2026-04-24 07:40 | -14.65250 | 49.96757 | 36961 ft | 511 kts | 30° |
| 2026-04-24 07:41 | -14.58978 | 50.00280 | 36944 ft | 511 kts | 30° |
| 2026-04-24 07:41 | -14.52714 | 50.03796 | 36930 ft | 511 kts | 30° |
| 2026-04-24 07:42 | -14.46464 | 50.07302 | 36923 ft | 509 kts | 30° |
| 2026-04-24 07:42 | -14.40225 | 50.10801 | 36916 ft | 511 kts | 30° |
| 2026-04-24 07:43 | -14.34000 | 50.14288 | 36906 ft | 509 kts | 30° |
| 2026-04-24 07:43 | -14.27762 | 50.17781 | 36894 ft | 508 kts | 30° |
| 2026-04-24 07:44 | -14.21566 | 50.21343 | 36884 ft | 508 kts | 31° |
| 2026-04-24 07:44 | -14.15380 | 50.24921 | 36890 ft | 507 kts | 31° |
| 2026-04-24 07:45 | -14.09207 | 50.28486 | 36892 ft | 508 kts | 30° |
| 2026-04-24 07:45 | -14.03049 | 50.32038 | 36893 ft | 506 kts | 30° |
| 2026-04-24 07:46 | -13.96907 | 50.35577 | 36893 ft | 506 kts | 30° |
| 2026-04-24 07:46 | -13.90736 | 50.39131 | 36891 ft | 506 kts | 30° |
| 2026-04-24 07:47 | -13.84585 | 50.42670 | 36884 ft | 506 kts | 30° |
| 2026-04-24 07:47 | -13.78453 | 50.46196 | 36883 ft | 506 kts | 30° |
| 2026-04-24 07:48 | -13.72294 | 50.49736 | 36884 ft | 505 kts | 30° |
| 2026-04-24 07:48 | -13.66153 | 50.53262 | 36879 ft | 504 kts | 30° |
| 2026-04-24 07:49 | -13.60015 | 50.56784 | 36883 ft | 504 kts | 30° |
| 2026-04-24 07:49 | -13.53866 | 50.60309 | 36881 ft | 505 kts | 30° |
| 2026-04-24 07:50 | -13.47727 | 50.63826 | 36881 ft | 503 kts | 30° |
| 2026-04-24 07:50 | -13.41613 | 50.67326 | 36875 ft | 504 kts | 29° |
| 2026-04-24 07:51 | -13.35466 | 50.70843 | 36874 ft | 504 kts | 29° |
| 2026-04-24 07:51 | -13.29373 | 50.74327 | 36877 ft | 503 kts | 29° |
| 2026-04-24 07:52 | -13.23248 | 50.77828 | 36874 ft | 503 kts | 29° |
| 2026-04-24 07:52 | -13.17105 | 50.81337 | 36869 ft | 502 kts | 29° |
| 2026-04-24 07:53 | -13.11039 | 50.84799 | 36872 ft | 500 kts | 29° |
| 2026-04-24 07:53 | -13.04935 | 50.88282 | 36877 ft | 501 kts | 28° |
| 2026-04-24 07:54 | -12.98855 | 50.91749 | 36880 ft | 500 kts | 28° |
| 2026-04-24 07:54 | -12.92777 | 50.95213 | 36869 ft | 501 kts | 28° |
| 2026-04-24 07:55 | -12.86676 | 50.98687 | 36863 ft | 500 kts | 28° |
| 2026-04-24 07:55 | -12.80564 | 51.02166 | 36865 ft | 500 kts | 28° |
| 2026-04-24 07:56 | -12.74496 | 51.05618 | 36863 ft | 501 kts | 28° |
| 2026-04-24 07:56 | -12.68376 | 51.09098 | 36861 ft | 499 kts | 27° |
| 2026-04-24 07:57 | -12.62316 | 51.12542 | 36859 ft | 498 kts | 27° |
| 2026-04-24 07:57 | -12.56280 | 51.15971 | 36858 ft | 498 kts | 27° |
| 2026-04-24 07:58 | -12.50192 | 51.19427 | 36856 ft | 496 kts | 27° |
| 2026-04-24 07:58 | -12.44164 | 51.22847 | 36858 ft | 496 kts | 26° |
| 2026-04-24 07:59 | -12.38142 | 51.26262 | 36856 ft | 495 kts | 26° |
| 2026-04-24 07:59 | -12.32098 | 51.29688 | 36854 ft | 494 kts | 26° |
| 2026-04-24 08:00 | -12.26109 | 51.33080 | 36854 ft | 493 kts | 26° |
| 2026-04-24 08:00 | -12.20084 | 51.36491 | 36856 ft | 492 kts | 26° |
| 2026-04-24 08:01 | -12.14103 | 51.39876 | 36861 ft | 489 kts | 26° |
| 2026-04-24 08:01 | -12.08167 | 51.43234 | 36863 ft | 490 kts | 26° |
| 2026-04-24 08:02 | -12.02208 | 51.46606 | 36864 ft | 487 kts | 26° |
| 2026-04-24 08:02 | -11.96266 | 51.49966 | 36864 ft | 488 kts | 26° |
| 2026-04-24 08:03 | -11.90302 | 51.53337 | 36866 ft | 489 kts | 25° |
| 2026-04-24 08:03 | -11.84311 | 51.56721 | 36873 ft | 490 kts | 25° |
| 2026-04-24 08:04 | -11.78352 | 51.60086 | 36870 ft | 489 kts | 25° |
| 2026-04-24 08:04 | -11.72403 | 51.63443 | 36864 ft | 491 kts | 25° |
| 2026-04-24 08:05 | -11.66411 | 51.66824 | 36852 ft | 488 kts | 25° |
| 2026-04-24 08:05 | -11.60463 | 51.70183 | 36851 ft | 490 kts | 25° |
| 2026-04-24 08:06 | -11.54505 | 51.73547 | 36849 ft | 488 kts | 25° |
| 2026-04-24 08:06 | -11.48531 | 51.76918 | 36846 ft | 489 kts | 25° |
| 2026-04-24 08:07 | -11.42536 | 51.80299 | 36847 ft | 490 kts | 25° |
| 2026-04-24 08:07 | -11.36604 | 51.83644 | 36846 ft | 489 kts | 25° |
| 2026-04-24 08:08 | -11.30597 | 51.87028 | 36847 ft | 490 kts | 25° |
| 2026-04-24 08:09 | -11.21648 | 51.92067 | 36845 ft | 490 kts | 25° |
| 2026-04-24 08:09 | -11.15704 | 51.95413 | 36846 ft | 488 kts | 25° |
| 2026-04-24 08:10 | -11.09745 | 51.98764 | 36847 ft | 490 kts | 25° |
| 2026-04-24 08:10 | -11.03754 | 52.02133 | 36845 ft | 488 kts | 25° |
| 2026-04-24 08:11 | -10.97796 | 52.05481 | 36846 ft | 489 kts | 25° |
| 2026-04-24 08:11 | -10.91829 | 52.08833 | 36844 ft | 489 kts | 25° |
| 2026-04-24 08:12 | -10.85884 | 52.12171 | 36843 ft | 487 kts | 25° |
| 2026-04-24 08:12 | -10.79946 | 52.15503 | 36842 ft | 487 kts | 25° |
| 2026-04-24 08:13 | -10.74014 | 52.18830 | 36843 ft | 487 kts | 25° |
| 2026-04-24 08:13 | -10.68058 | 52.22170 | 36841 ft | 487 kts | 25° |
| 2026-04-24 08:14 | -10.62131 | 52.25492 | 36834 ft | 487 kts | 24° |
| 2026-04-24 08:14 | -10.56188 | 52.28820 | 36830 ft | 486 kts | 24° |
| 2026-04-24 08:15 | -10.50281 | 52.32129 | 36830 ft | 485 kts | 24° |
| 2026-04-24 08:15 | -10.44344 | 52.35451 | 36830 ft | 485 kts | 24° |
| 2026-04-24 08:16 | -10.38432 | 52.38759 | 36828 ft | 486 kts | 24° |
| 2026-04-24 08:16 | -10.32545 | 52.42050 | 36829 ft | 484 kts | 24° |
| 2026-04-24 08:17 | -10.26626 | 52.45359 | 36831 ft | 483 kts | 24° |
| 2026-04-24 08:17 | -10.20740 | 52.48647 | 36829 ft | 484 kts | 24° |
| 2026-04-24 08:18 | -10.14814 | 52.51957 | 36831 ft | 482 kts | 24° |
| 2026-04-24 08:18 | -10.08925 | 52.55244 | 36830 ft | 482 kts | 24° |
| 2026-04-24 08:19 | -10.03071 | 52.58511 | 36830 ft | 482 kts | 24° |
| 2026-04-24 08:19 | -9.97162 | 52.61808 | 36830 ft | 482 kts | 24° |
| 2026-04-24 08:20 | -9.91299 | 52.65079 | 36829 ft | 481 kts | 24° |
| 2026-04-24 08:20 | -9.85411 | 52.68362 | 36827 ft | 481 kts | 24° |
| 2026-04-24 08:21 | -9.79574 | 52.71616 | 36829 ft | 480 kts | 24° |
| 2026-04-24 08:21 | -9.73689 | 52.74896 | 36831 ft | 482 kts | 24° |
| 2026-04-24 08:22 | -9.67821 | 52.78165 | 36824 ft | 478 kts | 24° |
| 2026-04-24 08:22 | -9.61966 | 52.81425 | 36829 ft | 479 kts | 24° |
| 2026-04-24 08:23 | -9.56135 | 52.84670 | 36828 ft | 479 kts | 24° |
| 2026-04-24 08:23 | -9.50310 | 52.87911 | 36834 ft | 479 kts | 24° |
| 2026-04-24 08:24 | -9.44474 | 52.91156 | 36830 ft | 478 kts | 24° |
| 2026-04-24 08:24 | -9.38609 | 52.94416 | 36828 ft | 480 kts | 24° |
| 2026-04-24 08:25 | -9.32765 | 52.97665 | 36830 ft | 478 kts | 24° |
| 2026-04-24 08:25 | -9.26937 | 53.00902 | 36828 ft | 477 kts | 24° |
| 2026-04-24 08:26 | -9.21139 | 53.04121 | 36829 ft | 477 kts | 24° |
| 2026-04-24 08:26 | -9.15304 | 53.07360 | 36831 ft | 478 kts | 24° |
| 2026-04-24 08:27 | -9.09483 | 53.10590 | 36828 ft | 476 kts | 24° |
| 2026-04-24 08:27 | -9.03677 | 53.13810 | 36829 ft | 476 kts | 24° |
| 2026-04-24 08:28 | -8.97865 | 53.17032 | 36827 ft | 476 kts | 24° |
| 2026-04-24 08:28 | -8.92052 | 53.20254 | 36825 ft | 475 kts | 24° |
| 2026-04-24 08:29 | -8.86239 | 53.23474 | 36831 ft | 476 kts | 24° |
| 2026-04-24 08:29 | -8.80428 | 53.26693 | 36830 ft | 475 kts | 24° |
| 2026-04-24 08:30 | -8.74603 | 53.29918 | 36831 ft | 475 kts | 24° |
| 2026-04-24 08:30 | -8.68822 | 53.33117 | 36830 ft | 475 kts | 24° |
| 2026-04-24 08:31 | -8.63007 | 53.36335 | 36829 ft | 475 kts | 24° |
| 2026-04-24 08:31 | -8.57209 | 53.39541 | 36828 ft | 475 kts | 24° |
| 2026-04-24 08:32 | -8.51387 | 53.42760 | 36827 ft | 475 kts | 24° |
| 2026-04-24 08:32 | -8.45607 | 53.45954 | 36827 ft | 474 kts | 24° |
| 2026-04-24 08:33 | -8.39785 | 53.49171 | 36822 ft | 475 kts | 24° |
| 2026-04-24 08:33 | -8.33983 | 53.52375 | 36820 ft | 474 kts | 24° |
| 2026-04-24 08:34 | -8.28221 | 53.55556 | 36814 ft | 474 kts | 24° |
| 2026-04-24 08:34 | -8.22430 | 53.58752 | 36809 ft | 474 kts | 25° |
| 2026-04-24 08:35 | -8.16603 | 53.61967 | 36810 ft | 474 kts | 25° |
| 2026-04-24 08:35 | -8.10807 | 53.65163 | 36808 ft | 474 kts | 24° |
| 2026-04-24 08:36 | -8.05026 | 53.68351 | 36800 ft | 474 kts | 24° |
| 2026-04-24 08:36 | -7.99220 | 53.71550 | 36800 ft | 476 kts | 24° |
| 2026-04-24 08:37 | -7.93426 | 53.74744 | 36800 ft | 474 kts | 24° |
| 2026-04-24 08:37 | -7.87626 | 53.77938 | 36808 ft | 474 kts | 24° |
| 2026-04-24 08:38 | -7.81839 | 53.81125 | 36807 ft | 473 kts | 24° |
| 2026-04-24 08:38 | -7.76054 | 53.84309 | 36807 ft | 473 kts | 24° |
| 2026-04-24 08:39 | -7.70243 | 53.87506 | 36813 ft | 474 kts | 24° |
| 2026-04-24 08:39 | -7.64467 | 53.90684 | 36820 ft | 474 kts | 25° |
| 2026-04-24 08:40 | -7.58659 | 53.93878 | 36824 ft | 474 kts | 25° |
| 2026-04-24 08:40 | -7.52876 | 53.97057 | 36826 ft | 474 kts | 25° |
| 2026-04-24 08:41 | -7.47084 | 54.00240 | 36827 ft | 475 kts | 25° |
| 2026-04-24 08:41 | -7.41275 | 54.03433 | 36825 ft | 474 kts | 25° |
| 2026-04-24 08:42 | -7.35457 | 54.06628 | 36826 ft | 475 kts | 25° |
| 2026-04-24 08:42 | -7.29649 | 54.09817 | 36826 ft | 474 kts | 25° |
| 2026-04-24 08:43 | -7.23861 | 54.12991 | 36818 ft | 473 kts | 24° |
| 2026-04-24 08:43 | -7.18081 | 54.16124 | 36809 ft | 472 kts | 24° |
| 2026-04-24 08:44 | -7.12286 | 54.19264 | 36806 ft | 473 kts | 24° |
| 2026-04-24 08:44 | -7.06479 | 54.22409 | 36807 ft | 474 kts | 24° |
| 2026-04-24 08:45 | -7.00686 | 54.25548 | 36805 ft | 473 kts | 24° |
| 2026-04-24 08:45 | -6.94879 | 54.28693 | 36805 ft | 473 kts | 24° |
| 2026-04-24 08:46 | -6.89056 | 54.31847 | 36806 ft | 473 kts | 24° |
| 2026-04-24 08:46 | -6.83275 | 54.34977 | 36810 ft | 471 kts | 24° |
| 2026-04-24 08:47 | -6.77499 | 54.38103 | 36811 ft | 472 kts | 24° |
| 2026-04-24 08:47 | -6.71696 | 54.41242 | 36811 ft | 473 kts | 24° |
| 2026-04-24 08:48 | -6.65905 | 54.44375 | 36810 ft | 472 kts | 25° |
| 2026-04-24 08:48 | -6.60118 | 54.47505 | 36810 ft | 471 kts | 25° |
| 2026-04-24 08:49 | -6.54322 | 54.50639 | 36811 ft | 472 kts | 25° |
| 2026-04-24 08:49 | -6.48538 | 54.53766 | 36809 ft | 470 kts | 24° |
| 2026-04-24 08:50 | -6.42766 | 54.56884 | 36808 ft | 471 kts | 24° |
| 2026-04-24 08:50 | -6.36980 | 54.60010 | 36808 ft | 472 kts | 25° |
| 2026-04-24 08:51 | -6.31191 | 54.63137 | 36736 ft | 467 kts | 24° |
| 2026-04-24 08:51 | -6.28340 | 54.64677 | 36017 ft | 467 kts | 24° |
| 2026-04-24 08:51 | -6.25475 | 54.66224 | 35043 ft | 470 kts | 24° |
| 2026-04-24 08:51 | -6.22597 | 54.67777 | 34186 ft | 471 kts | 24° |
| 2026-04-24 08:52 | -6.19718 | 54.69331 | 33387 ft | 470 kts | 24° |
| 2026-04-24 08:52 | -6.16838 | 54.70885 | 32571 ft | 470 kts | 24° |
| 2026-04-24 08:52 | -6.13950 | 54.72443 | 31780 ft | 471 kts | 24° |
| 2026-04-24 08:52 | -6.11069 | 54.73998 | 30945 ft | 472 kts | 24° |
| 2026-04-24 08:53 | -6.08167 | 54.75563 | 30291 ft | 473 kts | 25° |
| 2026-04-24 08:53 | -6.05245 | 54.77138 | 29819 ft | 484 kts | 25° |
| 2026-04-24 08:53 | -6.02242 | 54.78757 | 29271 ft | 485 kts | 25° |
| 2026-04-24 08:53 | -5.99288 | 54.80352 | 28706 ft | 480 kts | 25° |
| 2026-04-24 08:54 | -5.96362 | 54.81931 | 28144 ft | 475 kts | 25° |
| 2026-04-24 08:54 | -5.93465 | 54.83494 | 27578 ft | 470 kts | 25° |
| 2026-04-24 08:54 | -5.90607 | 54.85035 | 27017 ft | 466 kts | 25° |
| 2026-04-24 08:54 | -5.87766 | 54.86567 | 26453 ft | 461 kts | 25° |
| 2026-04-24 08:55 | -5.84951 | 54.88084 | 25893 ft | 457 kts | 25° |
| 2026-04-24 08:55 | -5.82128 | 54.89607 | 25324 ft | 453 kts | 26° |
| 2026-04-24 08:55 | -5.79394 | 54.91079 | 24761 ft | 449 kts | 26° |
| 2026-04-24 08:55 | -5.76649 | 54.92558 | 24196 ft | 445 kts | 26° |
| 2026-04-24 08:56 | -5.73919 | 54.94029 | 23621 ft | 441 kts | 26° |
| 2026-04-24 08:56 | -5.71221 | 54.95483 | 23054 ft | 437 kts | 26° |
| 2026-04-24 08:56 | -5.68533 | 54.96930 | 22487 ft | 434 kts | 26° |
| 2026-04-24 08:56 | -5.65914 | 54.98340 | 21928 ft | 430 kts | 26° |
| 2026-04-24 08:57 | -5.63269 | 54.99765 | 21363 ft | 427 kts | 26° |
| 2026-04-24 08:57 | -5.60642 | 55.01179 | 20792 ft | 424 kts | 27° |
| 2026-04-24 08:57 | -5.58068 | 55.02565 | 20219 ft | 421 kts | 27° |
| 2026-04-24 08:57 | -5.55504 | 55.03945 | 19646 ft | 419 kts | 27° |
| 2026-04-24 08:58 | -5.52921 | 55.05336 | 19067 ft | 416 kts | 27° |
| 2026-04-24 08:58 | -5.50386 | 55.06700 | 18490 ft | 414 kts | 27° |
| 2026-04-24 08:58 | -5.47865 | 55.08056 | 17918 ft | 411 kts | 27° |
| 2026-04-24 08:58 | -5.45340 | 55.09415 | 17339 ft | 409 kts | 27° |
| 2026-04-24 08:59 | -5.42831 | 55.10766 | 16760 ft | 407 kts | 27° |
| 2026-04-24 08:59 | -5.40340 | 55.12105 | 16182 ft | 405 kts | 28° |
| 2026-04-24 08:59 | -5.37864 | 55.13437 | 15599 ft | 402 kts | 28° |
| 2026-04-24 08:59 | -5.35415 | 55.14755 | 15019 ft | 400 kts | 28° |
| 2026-04-24 09:00 | -5.32946 | 55.16083 | 14438 ft | 397 kts | 28° |
| 2026-04-24 09:00 | -5.30546 | 55.17374 | 13865 ft | 394 kts | 28° |
| 2026-04-24 09:00 | -5.28132 | 55.18672 | 13284 ft | 391 kts | 28° |
| 2026-04-24 09:00 | -5.25722 | 55.19968 | 12708 ft | 388 kts | 28° |
| 2026-04-24 09:01 | -5.23346 | 55.21246 | 12134 ft | 385 kts | 28° |
| 2026-04-24 09:01 | -5.21020 | 55.22496 | 11606 ft | 381 kts | 28° |
| 2026-04-24 09:01 | -5.18682 | 55.23753 | 11116 ft | 376 kts | 28° |
| 2026-04-24 09:01 | -5.16416 | 55.24972 | 10771 ft | 366 kts | 28° |
| 2026-04-24 09:02 | -5.14194 | 55.26166 | 10675 ft | 350 kts | 28° |
| 2026-04-24 09:02 | -5.12215 | 55.27490 | 10548 ft | 337 kts | 42° |
| 2026-04-24 09:02 | -5.10739 | 55.29245 | 10381 ft | 324 kts | 54° |
| 2026-04-24 09:02 | -5.09543 | 55.31090 | 10249 ft | 303 kts | 57° |
| 2026-04-24 09:03 | -5.08497 | 55.32850 | 10203 ft | 285 kts | 59° |
| 2026-04-24 09:03 | -5.07533 | 55.34546 | 10056 ft | 277 kts | 59° |
| 2026-04-24 09:03 | -5.06585 | 55.36247 | 9712 ft | 277 kts | 59° |
| 2026-04-24 09:03 | -5.05654 | 55.37929 | 9331 ft | 279 kts | 59° |
| 2026-04-24 09:04 | -5.04718 | 55.39623 | 8974 ft | 279 kts | 59° |
| 2026-04-24 09:04 | -5.03772 | 55.41337 | 8628 ft | 278 kts | 59° |
| 2026-04-24 09:04 | -5.02837 | 55.43029 | 8293 ft | 278 kts | 59° |
| 2026-04-24 09:04 | -5.01902 | 55.44723 | 7958 ft | 277 kts | 59° |
| 2026-04-24 09:05 | -5.00975 | 55.46402 | 7625 ft | 276 kts | 59° |
| 2026-04-24 09:05 | -5.00037 | 55.48100 | 7289 ft | 276 kts | 59° |
| 2026-04-24 09:05 | -4.99116 | 55.49768 | 6959 ft | 275 kts | 59° |
| 2026-04-24 09:05 | -4.98187 | 55.51449 | 6628 ft | 275 kts | 59° |
| 2026-04-24 09:06 | -4.97257 | 55.53133 | 6292 ft | 274 kts | 59° |
| 2026-04-24 09:06 | -4.96339 | 55.54794 | 5963 ft | 273 kts | 59° |
| 2026-04-24 09:06 | -4.95425 | 55.56449 | 5638 ft | 272 kts | 59° |
| 2026-04-24 09:06 | -4.94513 | 55.58098 | 5322 ft | 270 kts | 59° |
| 2026-04-24 09:07 | -4.93607 | 55.59737 | 5008 ft | 269 kts | 59° |
| 2026-04-24 09:07 | -4.92675 | 55.61372 | 4673 ft | 268 kts | 53° |
| 2026-04-24 09:07 | -4.89656 | 55.63287 | 4201 ft | 252 kts | 19° |
| 2026-04-24 09:08 | -4.88016 | 55.63825 | 4084 ft | 244 kts | 17° |
| 2026-04-24 09:08 | -4.86408 | 55.64325 | 3936 ft | 236 kts | 17° |
| 2026-04-24 09:08 | -4.84833 | 55.64742 | 3785 ft | 227 kts | 5° |
| 2026-04-24 09:08 | -4.83324 | 55.64459 | 3616 ft | 220 kts | 338° |
| 2026-04-24 09:09 | -4.81988 | 55.63834 | 3503 ft | 204 kts | 336° |
| 2026-04-24 09:09 | -4.80740 | 55.63241 | 3417 ft | 189 kts | 336° |
| 2026-04-24 09:09 | -4.79553 | 55.62677 | 3186 ft | 188 kts | 336° |
| 2026-04-24 09:09 | -4.78382 | 55.62123 | 2913 ft | 187 kts | 336° |
| 2026-04-24 09:10 | -4.77205 | 55.61565 | 2617 ft | 179 kts | 336° |
| 2026-04-24 09:10 | -4.76116 | 55.61048 | 2334 ft | 169 kts | 336° |
| 2026-04-24 09:10 | -4.75107 | 55.60569 | 2086 ft | 151 kts | 336° |
| 2026-04-24 09:10 | -4.74163 | 55.60122 | 1841 ft | 148 kts | 336° |
| 2026-04-24 09:11 | -4.73241 | 55.59685 | 1609 ft | 147 kts | 336° |
| 2026-04-24 09:11 | -4.72320 | 55.59219 | 1377 ft | 148 kts | 323° |
| 2026-04-24 09:11 | -4.71816 | 55.58355 | 1147 ft | 148 kts | 285° |
| 2026-04-24 09:11 | -4.71336 | 55.57452 | 940 ft | 146 kts | 316° |
| 2026-04-24 09:12 | -4.70586 | 55.56734 | 801 ft | 149 kts | 313° |
| 2026-04-24 09:12 | -4.69951 | 55.55911 | 630 ft | 149 kts | 304° |
| 2026-04-24 09:12 | -4.69373 | 55.55045 | 447 ft | 150 kts | 302° |
| 2026-04-24 09:12 | -4.68804 | 55.54160 | 279 ft | 152 kts | 302° |
| 2026-04-24 09:13 | -4.68206 | 55.53289 | 111 ft | 152 kts | 303° |
| 2026-04-24 09:13 | -4.67613 | 55.52446 | 20 ft | 128 kts | 303° |
| 2026-04-24 09:13 | -4.67206 | 55.51860 | 21 ft | 75 kts | 304° |
| 2026-04-24 09:13 | -4.67012 | 55.51586 | 20 ft | 24 kts | 306° |
| 2026-04-24 09:14 | -4.66933 | 55.51472 | 20 ft | 15 kts | 303° |
| 2026-04-24 09:14 | -4.66893 | 55.51396 | 20 ft | 9 kts | 257° |
| 2026-04-24 09:14 | -4.66930 | 55.51354 | 20 ft | 6 kts | 216° |
| 2026-04-24 09:14 | -4.66958 | 55.51335 | 21 ft | 3 kts | 215° |
| 2026-04-24 09:15 | -4.66967 | 55.51328 | 21 ft | 0 kts | 214° |
| 2026-04-24 09:15 | -4.66977 | 55.51322 | 21 ft | 3 kts | 214° |
| 2026-04-24 09:15 | -4.67004 | 55.51302 | 21 ft | 6 kts | 223° |
| 2026-04-24 09:15 | -4.67008 | 55.51260 | 21 ft | 7 kts | 304° |
| 2026-04-24 09:16 | -4.67000 | 55.51234 | 21 ft | 3 kts | 258° |
| 2026-04-24 09:16 | -4.67009 | 55.51221 | 21 ft | 0 kts | 226° |
| 2026-04-24 09:16 | -4.67012 | 55.51218 | 21 ft | 1 kts | 224° |
| 2026-04-24 09:16 | -4.67022 | 55.51209 | 22 ft | 3 kts | 219° |
| 2026-04-24 09:17 | -4.67027 | 55.51205 | 22 ft | 0 kts | 217° |
| 2026-04-24 09:17 | -4.67033 | 55.51202 | 22 ft | 1 kts | 217° |
| 2026-04-24 09:17 | -4.67040 | 55.51196 | 22 ft | 0 kts | 216° |